createdAt,value
2023-05-23T00:01:55.122Z,99915.66
2023-05-23T00:04:27.424Z,99877.19
2023-05-23T00:06:56.955Z,99987.34
2023-05-23T00:09:23.916Z,99941.03
2023-05-23T00:11:50.715Z,99911.34
2023-05-23T00:14:17.881Z,99955.94
2023-05-23T00:16:46.493Z,99999.63
2023-05-23T00:19:17.188Z,99955.03
2023-05-23T00:21:48.328Z,99932.28
2023-05-23T00:24:19.100Z,99827.38
2023-05-23T00:26:48.868Z,99869.31
2023-05-23T00:29:19.681Z,99945.41
2023-05-23T00:31:47.352Z,99824.78
2023-05-23T00:34:18.271Z,99976.03
2023-05-23T00:36:50.546Z,100002.25
2023-05-23T00:39:19.972Z,100010.13
2023-05-23T00:41:52.945Z,99914.81
2023-05-23T00:44:28.388Z,99812.56
2023-05-23T00:46:56.658Z,99958.53
2023-05-23T00:49:24.104Z,99997.88
2023-05-23T00:51:52.188Z,99903.47
2023-05-23T00:54:23.303Z,99926.22
2023-05-23T00:56:50.303Z,99702.59
2023-05-23T00:59:17.612Z,99900.88
2023-05-23T01:01:47.541Z,99922.72
2023-05-23T01:04:16.994Z,99858.03
2023-05-23T01:06:49.512Z,99986.53
2023-05-23T01:09:20.884Z,99975.16
2023-05-23T01:12:03.059Z,99966.41
2023-05-23T01:15:08.788Z,99989.13
2023-05-23T01:17:46.054Z,99981.22
2023-05-23T01:20:18.168Z,99898.16
2023-05-23T01:22:57.285Z,99985.59
2023-05-23T01:25:26.444Z,99983.00
2023-05-23T01:27:57.356Z,99980.34
2023-05-23T01:30:26.604Z,99940.13
2023-05-23T01:32:57.704Z,99989.97
2023-05-23T01:35:28.763Z,99949.75
2023-05-23T01:37:56.286Z,99982.97
2023-05-23T01:40:29.156Z,99857.00
2023-05-23T01:42:59.664Z,99981.19
2023-05-23T01:45:29.765Z,99826.38
2023-05-23T01:47:57.429Z,99961.00
2023-05-23T01:50:26.131Z,99872.59
2023-05-23T01:52:56.159Z,99960.03
2023-05-23T01:55:26.554Z,99913.66
2023-05-23T01:57:57.314Z,99914.53
2023-05-23T02:00:26.508Z,99906.69
2023-05-23T02:02:55.684Z,99970.53
2023-05-23T02:05:25.190Z,99927.63
2023-05-23T02:07:52.132Z,99943.47
2023-05-23T02:10:21.637Z,99961.03
2023-05-23T02:12:51.175Z,99952.25
2023-05-23T02:15:20.306Z,99891.03
2023-05-23T02:17:52.511Z,99964.53
2023-05-23T02:20:26.846Z,99898.06
2023-05-23T02:22:58.477Z,99338.13
2023-05-23T02:25:25.584Z,99336.09
2023-05-23T02:27:54.943Z,99333.41
2023-05-23T02:30:22.002Z,99798.09
2023-05-23T02:32:50.038Z,99962.59
2023-05-23T02:35:19.278Z,99906.63
2023-05-23T02:37:50.571Z,99894.41
2023-05-23T02:40:22.156Z,99964.38
2023-05-23T02:42:48.999Z,99862.09
2023-05-23T02:45:16.494Z,99797.28
2023-05-23T02:47:49.688Z,99938.97
2023-05-23T02:50:16.696Z,99880.41
2023-05-23T02:52:46.122Z,99869.88
2023-05-23T02:55:13.054Z,99839.28
2023-05-23T03:00:25.099Z,99808.75
2023-05-23T03:02:57.557Z,99862.91
2023-05-23T03:05:24.201Z,99960.00
2023-05-23T03:07:55.542Z,99932.84
2023-05-23T03:10:24.866Z,99951.16
2023-05-23T03:12:51.587Z,99959.09
2023-05-23T03:15:36.452Z,99856.69
2023-05-23T03:18:03.755Z,99885.63
2023-05-23T03:20:31.690Z,99966.09
2023-05-23T03:23:03.913Z,99891.69
2023-05-23T03:25:33.052Z,99945.06
2023-05-23T03:28:02.294Z,99968.72
2023-05-23T03:30:32.057Z,99954.66
2023-05-23T03:32:58.917Z,99863.69
2023-05-23T03:35:34.038Z,99857.56
2023-05-23T03:38:06.241Z,99902.19
2023-05-23T03:40:33.173Z,99894.34
2023-05-23T03:43:06.699Z,99891.78
2023-05-23T03:45:36.437Z,99859.44
2023-05-23T03:48:10.975Z,99869.97
2023-05-23T03:50:40.087Z,99966.16
2023-05-23T03:53:07.448Z,99900.56
2023-05-23T03:55:38.946Z,99865.63
2023-05-23T03:58:08.489Z,99853.34
2023-05-23T04:00:35.229Z,99876.94
2023-05-23T04:03:05.103Z,99927.63
2023-05-23T04:05:46.254Z,99780.75
2023-05-23T04:08:16.028Z,99893.50
2023-05-23T04:10:43.006Z,99966.94
2023-05-23T04:13:12.417Z,99944.25
2023-05-23T04:15:43.429Z,99935.50
2023-05-23T04:18:17.753Z,99964.41
2023-05-23T04:20:45.100Z,99873.50
2023-05-23T04:23:12.245Z,99939.09
2023-05-23T04:25:48.437Z,99916.41
2023-05-23T04:28:23.564Z,99883.13
2023-05-23T04:30:50.330Z,99961.06
2023-05-23T04:33:22.051Z,99908.56
2023-05-23T04:35:53.807Z,99894.59
2023-05-23T04:38:23.288Z,99785.34
2023-05-23T04:40:52.736Z,99653.50
2023-05-23T04:43:44.872Z,100012.59
2023-05-23T04:46:35.505Z,99442.97
2023-05-23T04:49:28.741Z,99578.16
2023-05-23T04:51:56.104Z,99271.88
2023-05-23T04:54:31.733Z,99650.63
2023-05-23T04:57:08.391Z,99975.91
2023-05-23T04:59:52.618Z,99599.03
2023-05-23T05:02:27.630Z,99559.16
2023-05-23T05:04:54.802Z,99455.25
2023-05-23T05:07:22.345Z,99346.31
2023-05-23T05:09:53.178Z,99378.78
2023-05-23T05:12:25.997Z,99353.47
2023-05-23T05:14:52.854Z,99853.69
2023-05-23T05:17:19.964Z,99948.06
2023-05-23T05:20:01.585Z,99889.53
2023-05-23T05:22:36.380Z,99961.16
2023-05-23T05:25:15.780Z,99940.22
2023-05-23T05:27:43.298Z,99922.75
2023-05-23T05:30:14.716Z,99894.75
2023-05-23T05:32:50.080Z,99903.50
2023-05-23T05:35:19.614Z,99941.94
2023-05-23T05:37:49.177Z,99851.09
2023-05-23T05:40:18.302Z,99848.47
2023-05-23T05:42:45.677Z,99911.38
2023-05-23T05:45:12.563Z,99889.50
2023-05-23T05:47:58.460Z,99959.47
2023-05-23T05:50:34.282Z,99927.09
2023-05-23T05:53:01.391Z,99823.13
2023-05-23T05:55:29.694Z,99816.16
2023-05-23T05:57:56.903Z,99879.00
2023-05-23T06:00:29.473Z,99820.50
2023-05-23T06:02:57.745Z,99941.03
2023-05-23T06:05:39.837Z,99958.41
2023-05-23T06:08:09.123Z,99856.25
2023-05-23T06:10:41.788Z,99963.66
2023-05-23T06:13:11.250Z,99919.94
2023-05-23T06:15:42.647Z,99931.25
2023-05-23T06:18:09.822Z,99924.31
2023-05-23T06:20:36.814Z,99860.50
2023-05-23T06:23:14.323Z,99862.25
2023-05-23T06:25:50.438Z,99930.34
2023-05-23T06:28:26.366Z,99911.00
2023-05-23T06:31:18.724Z,99951.09
2023-05-23T06:33:45.673Z,99910.88
2023-05-23T06:36:14.819Z,99884.72
2023-05-23T06:38:41.859Z,99948.31
2023-05-23T06:41:10.559Z,99950.00
2023-05-23T06:43:37.787Z,99846.19
2023-05-23T06:46:25.215Z,99877.63
2023-05-23T06:49:06.938Z,99847.94
2023-05-23T06:51:42.034Z,99873.25
2023-05-23T06:54:13.803Z,99864.50
2023-05-23T06:56:41.399Z,99850.53
2023-05-23T06:59:08.261Z,99868.00
2023-05-23T07:01:37.466Z,99941.25
2023-05-23T07:04:06.763Z,99892.28
2023-05-23T07:06:36.469Z,99930.63
2023-05-23T07:09:07.512Z,99926.19
2023-05-23T07:11:35.653Z,99849.38
2023-05-23T07:14:02.594Z,99774.31
2023-05-23T07:16:39.646Z,99820.31
2023-05-23T07:19:08.051Z,99617.28
2023-05-23T07:21:41.423Z,99807.75
2023-05-23T07:24:17.159Z,99694.38
2023-05-23T07:27:03.807Z,99773.59
2023-05-23T07:29:32.294Z,99795.22
2023-05-23T07:32:03.823Z,99823.03
2023-05-23T07:34:38.194Z,99654.88
2023-05-23T07:37:07.741Z,99922.91
2023-05-23T07:39:44.834Z,99829.44
2023-05-23T07:42:16.221Z,99917.13
2023-05-23T07:44:45.643Z,99897.00
2023-05-23T07:47:17.469Z,99864.53
2023-05-23T07:49:45.268Z,99864.25
2023-05-23T07:52:12.132Z,99844.09
2023-05-23T07:54:42.050Z,99831.69
2023-05-23T07:57:16.951Z,99858.34
2023-05-23T07:59:47.328Z,99843.13
2023-05-23T08:02:18.026Z,99825.66
2023-05-23T08:04:46.782Z,99853.19
2023-05-23T08:07:16.269Z,99832.13
2023-05-23T08:09:50.177Z,99771.84
2023-05-23T08:12:19.833Z,99886.44
2023-05-23T08:14:53.050Z,99783.56
2023-05-23T08:17:30.802Z,99830.28
2023-05-23T08:20:02.478Z,99734.81
2023-05-23T08:22:30.955Z,99786.06
2023-05-23T08:24:58.239Z,99804.22
2023-05-23T08:27:27.008Z,99898.00
2023-05-23T08:29:58.250Z,99752.66
2023-05-23T08:32:25.203Z,99756.88
2023-05-23T08:34:52.442Z,99833.94
2023-05-23T08:37:19.329Z,99820.31
2023-05-23T08:39:52.324Z,99798.50
2023-05-23T08:42:40.698Z,99792.28
2023-05-23T08:45:12.753Z,99790.97
2023-05-23T08:47:49.255Z,99799.09
2023-05-23T08:50:22.000Z,99839.56
2023-05-23T08:52:57.356Z,99886.81
2023-05-23T08:55:29.442Z,99889.78
2023-05-23T08:58:02.878Z,99643.72
2023-05-23T09:00:50.588Z,99767.25
2023-05-23T09:03:18.104Z,99863.69
2023-05-23T09:06:09.271Z,99710.53
2023-05-23T09:08:41.167Z,99881.66
2023-05-23T09:11:13.888Z,99810.69
2023-05-23T09:13:49.913Z,99870.63
2023-05-23T09:16:18.643Z,99762.72
2023-05-23T09:18:51.614Z,99786.91
2023-05-23T09:21:24.445Z,99794.44
2023-05-23T09:23:58.584Z,99786.03
2023-05-23T09:26:28.416Z,99799.50
2023-05-23T09:29:02.062Z,99789.41
2023-05-23T09:31:32.254Z,99881.03
2023-05-23T09:34:04.278Z,99887.09
2023-05-23T09:36:34.251Z,99881.72
2023-05-23T09:39:05.636Z,99722.50
2023-05-23T09:41:40.284Z,99884.78
2023-05-23T09:44:11.334Z,99783.75
2023-05-23T09:46:38.933Z,99837.47
2023-05-23T09:49:24.326Z,99811.06
2023-05-23T09:52:01.368Z,99743.34
2023-05-23T09:54:28.267Z,99792.75
2023-05-23T09:56:57.413Z,99834.50
2023-05-23T09:59:29.269Z,99877.53
2023-05-23T10:02:09.612Z,99767.94
2023-05-23T10:04:45.912Z,99802.28
2023-05-23T10:07:16.107Z,99736.03
2023-05-23T10:09:50.490Z,99777.56
2023-05-23T10:12:32.684Z,99866.19
2023-05-23T10:15:11.051Z,99841.75
2023-05-23T10:17:57.899Z,99784.56
2023-05-23T10:20:27.753Z,99832.72
2023-05-23T10:23:03.770Z,99834.75
2023-05-23T10:25:39.195Z,99798.28
2023-05-23T10:28:06.265Z,99729.81
2023-05-23T10:30:37.938Z,99815.97
2023-05-23T10:33:09.088Z,99864.53
2023-05-23T10:35:40.000Z,99857.06
2023-05-23T10:38:22.574Z,99846.28
2023-05-23T10:40:59.138Z,99847.34
2023-05-23T10:43:31.668Z,99815.94
2023-05-23T10:46:01.663Z,99730.81
2023-05-23T10:48:35.005Z,99843.75
2023-05-23T10:51:11.698Z,99789.34
2023-05-23T10:53:43.564Z,99766.03
2023-05-23T10:56:11.844Z,99824.19
2023-05-23T10:58:41.236Z,99703.38
2023-05-23T11:01:16.607Z,99828.38
2023-05-23T11:03:46.691Z,99828.22
2023-05-23T11:06:32.995Z,99821.34
2023-05-23T11:09:08.170Z,99681.22
2023-05-23T11:11:54.160Z,99817.28
2023-05-23T11:14:38.127Z,99817.44
2023-05-23T11:17:13.530Z,99815.28
2023-05-23T11:19:41.705Z,99739.75
2023-05-23T11:22:09.755Z,99764.50
2023-05-23T11:24:53.809Z,99781.38
2023-05-23T11:27:36.169Z,99794.03
2023-05-23T11:30:18.743Z,99792.06
2023-05-23T11:32:54.549Z,99753.50
2023-05-23T11:35:24.941Z,99775.31
2023-05-23T11:37:51.815Z,99711.97
2023-05-23T11:40:40.551Z,99777.75
2023-05-23T11:43:11.034Z,99790.28
2023-05-23T11:45:41.143Z,99741.06
2023-05-23T11:48:16.636Z,99765.53
2023-05-23T11:50:45.172Z,99708.84
2023-05-23T11:53:17.664Z,99770.22
2023-05-23T11:55:53.780Z,99759.34
2023-05-23T11:58:33.175Z,99737.75
2023-05-23T12:01:05.552Z,99663.19
2023-05-23T12:03:33.077Z,99727.84
2023-05-23T12:06:02.002Z,99673.28
2023-05-23T12:12:56.874Z,99241.06
2023-05-23T12:15:30.130Z,99066.59
2023-05-23T12:18:00.753Z,99129.41
2023-05-23T12:20:35.131Z,99728.84
2023-05-23T12:23:06.876Z,99141.78
2023-05-23T12:25:46.846Z,99280.06
2023-05-23T12:28:17.104Z,99389.84
2023-05-23T12:30:44.784Z,99292.66
2023-05-23T12:33:14.437Z,99088.16
2023-05-23T12:35:49.711Z,99526.91
2023-05-23T12:38:20.282Z,99655.41
2023-05-23T12:40:47.192Z,99627.41
2023-05-23T12:43:20.414Z,99697.59
2023-05-23T12:45:49.498Z,99651.47
2023-05-23T12:48:19.079Z,99705.75
2023-05-23T12:50:46.297Z,99558.06
2023-05-23T12:53:15.584Z,99621.81
2023-05-23T12:55:44.600Z,99609.84
2023-05-23T12:58:11.563Z,99636.84
2023-05-23T13:00:38.491Z,99644.97
2023-05-23T13:03:10.200Z,99668.44
2023-05-23T13:05:37.206Z,99672.47
2023-05-23T13:08:09.670Z,99653.94
2023-05-23T13:10:37.377Z,99521.78
2023-05-23T13:13:06.775Z,99682.47
2023-05-23T13:15:34.169Z,99633.88
2023-05-23T13:18:02.173Z,99613.38
2023-05-23T13:20:31.787Z,99578.16
2023-05-23T13:22:58.874Z,99644.09
2023-05-23T13:25:26.353Z,99618.34
2023-05-23T13:27:53.850Z,99668.63
2023-05-23T13:30:22.462Z,99625.41
2023-05-23T13:32:57.687Z,99624.94
2023-05-23T13:35:26.752Z,99619.50
2023-05-23T13:37:53.845Z,99588.25
2023-05-23T13:40:21.734Z,99616.31
2023-05-23T13:42:51.039Z,99642.50
2023-05-23T13:45:23.032Z,99665.63
2023-05-23T13:47:52.606Z,99599.63
2023-05-23T13:50:19.804Z,99612.44
2023-05-23T13:52:49.036Z,99630.91
2023-05-23T13:55:16.702Z,99664.97
2023-05-23T13:57:46.443Z,99589.41
2023-05-23T14:00:16.423Z,99645.88
2023-05-23T14:02:45.518Z,99623.03
2023-05-23T14:05:19.570Z,99656.59
2023-05-23T14:07:53.805Z,99643.81
2023-05-23T14:10:23.608Z,99541.09
2023-05-23T14:12:51.019Z,99574.16
2023-05-23T14:15:18.514Z,99621.84
2023-05-23T14:17:45.440Z,99596.66
2023-05-23T14:20:18.460Z,99646.06
2023-05-23T14:22:45.581Z,99575.16
2023-05-23T14:25:12.426Z,99597.84
2023-05-23T14:27:41.937Z,99602.28
2023-05-23T14:30:11.898Z,99620.25
2023-05-23T14:32:41.940Z,99549.28
2023-05-23T14:35:11.111Z,99613.19
2023-05-23T14:37:38.650Z,99583.38
2023-05-23T14:40:10.176Z,99599.66
2023-05-23T14:42:39.410Z,99554.38
2023-05-23T14:45:07.140Z,99644.00
2023-05-23T14:47:34.287Z,99612.78
2023-05-23T14:50:01.611Z,99583.19
2023-05-23T14:52:30.951Z,99554.25
2023-05-23T14:55:05.401Z,99564.44
2023-05-23T14:57:34.537Z,99583.00
2023-05-23T15:00:05.779Z,99589.22
2023-05-23T15:02:35.445Z,99643.63
2023-05-23T15:05:08.020Z,99566.28
2023-05-23T15:07:35.719Z,99521.97
2023-05-23T15:10:03.478Z,99579.94
2023-05-23T15:12:30.153Z,99642.03
2023-05-23T15:15:03.365Z,99566.41
2023-05-23T15:17:36.626Z,99572.00
2023-05-23T15:20:07.689Z,99606.44
2023-05-23T15:22:39.366Z,99513.34
2023-05-23T15:25:08.062Z,99569.47
2023-05-23T15:27:34.947Z,99582.28
2023-05-23T15:30:02.967Z,99651.13
2023-05-23T15:32:29.618Z,99645.81
2023-05-23T15:34:56.716Z,99609.06
2023-05-23T15:37:28.401Z,99613.88
2023-05-23T15:39:57.256Z,99554.47
2023-05-23T15:42:24.025Z,99522.66
2023-05-23T15:44:51.305Z,99564.19
2023-05-23T15:47:18.905Z,99499.50
2023-05-23T15:49:45.722Z,99582.66
2023-05-23T15:52:14.882Z,99540.84
2023-05-23T15:54:47.422Z,99473.91
2023-05-23T15:57:16.676Z,99650.59
2023-05-23T15:59:43.848Z,99604.44
2023-05-23T16:02:16.463Z,99540.25
2023-05-23T16:04:47.067Z,99552.47
2023-05-23T16:07:15.388Z,99643.38
2023-05-23T16:09:50.939Z,99616.03
2023-05-23T16:12:20.915Z,99635.06
2023-05-23T16:14:53.075Z,99489.50
2023-05-23T16:17:23.238Z,99600.78
2023-05-23T16:19:51.275Z,99539.38
2023-05-23T16:22:20.835Z,99470.69
2023-05-23T16:24:55.293Z,99589.47
2023-05-23T16:27:23.744Z,99519.88
2023-05-23T16:29:50.814Z,99459.53
2023-05-23T16:32:17.569Z,99627.13
2023-05-23T16:34:49.451Z,99578.66
2023-05-23T16:37:21.914Z,99559.59
2023-05-23T16:39:49.084Z,99570.56
2023-05-23T16:42:16.296Z,99559.09
2023-05-23T16:44:44.338Z,99539.78
2023-05-23T16:47:18.066Z,99432.78
2023-05-23T16:49:53.673Z,99500.13
2023-05-23T16:52:20.807Z,99609.75
2023-05-23T16:54:47.765Z,99661.22
2023-05-23T16:57:17.355Z,99543.91
2023-05-23T16:59:49.966Z,99553.56
2023-05-23T17:02:19.118Z,99568.66
2023-05-23T17:04:46.627Z,99677.47
2023-05-23T17:07:22.459Z,99684.47
2023-05-23T17:09:51.477Z,99697.41
2023-05-23T17:12:19.500Z,99640.81
2023-05-23T17:14:49.436Z,99648.72
2023-05-23T17:17:18.826Z,99321.75
2023-05-23T17:19:55.439Z,99685.69
2023-05-23T17:22:24.872Z,99712.78
2023-05-23T17:24:51.817Z,99501.44
2023-05-23T17:27:18.589Z,99799.63
2023-05-23T17:29:47.726Z,99739.34
2023-05-23T17:32:14.895Z,99772.38
2023-05-23T17:34:42.857Z,99804.97
2023-05-23T17:37:11.952Z,99824.78
2023-05-23T17:39:38.823Z,99801.50
2023-05-23T17:42:05.871Z,99651.13
2023-05-23T17:44:40.573Z,99656.50
2023-05-23T17:47:09.545Z,99804.69
2023-05-23T17:49:49.176Z,99714.84
2023-05-23T17:52:16.798Z,99652.72
2023-05-23T17:54:44.608Z,99801.78
2023-05-23T17:57:11.621Z,99669.50
2023-05-23T17:59:41.011Z,99779.22
2023-05-23T18:02:10.800Z,99747.22
2023-05-23T18:04:38.816Z,99756.91
2023-05-23T18:07:18.542Z,99808.25
2023-05-23T18:09:48.751Z,99729.94
2023-05-23T18:12:18.179Z,99837.19
2023-05-23T18:14:46.979Z,99772.88
2023-05-23T18:17:17.591Z,99760.72
2023-05-23T18:19:52.126Z,99861.03
2023-05-23T18:22:21.115Z,99768.41
2023-05-23T18:24:51.906Z,99690.19
2023-05-23T18:27:18.847Z,99654.56
2023-05-23T18:29:50.442Z,99707.88
2023-05-23T18:32:27.909Z,99801.09
2023-05-23T18:34:56.945Z,99710.47
2023-05-23T18:37:24.048Z,99764.31
2023-05-23T18:39:59.369Z,99854.19
2023-05-23T18:42:26.342Z,99708.81
2023-05-23T18:44:53.499Z,99849.88
2023-05-23T18:47:20.318Z,99720.00
2023-05-23T18:49:49.970Z,99679.91
2023-05-23T18:52:16.764Z,99884.03
2023-05-23T18:54:47.353Z,99909.22
2023-05-23T18:57:14.621Z,99823.84
2023-05-23T18:59:49.466Z,99829.25
2023-05-23T19:02:18.635Z,99871.91
2023-05-23T19:04:55.866Z,99815.44
2023-05-23T19:07:22.656Z,99825.25
2023-05-23T19:09:54.422Z,99834.03
2023-05-23T19:12:24.669Z,99765.19
2023-05-23T19:14:52.131Z,99889.13
2023-05-23T19:17:21.838Z,99790.38
2023-05-23T19:19:51.331Z,99838.34
2023-05-23T19:22:20.480Z,99787.69
2023-05-23T19:24:49.950Z,99928.00
2023-05-23T19:27:16.965Z,99803.22
2023-05-23T19:29:48.443Z,99922.72
2023-05-23T19:32:15.276Z,99928.81
2023-05-23T19:34:44.986Z,99832.84
2023-05-23T19:37:14.544Z,99865.06
2023-05-23T19:39:46.003Z,99921.59
2023-05-23T19:42:18.239Z,99837.06
2023-05-23T19:44:48.277Z,99850.94
2023-05-23T19:47:17.908Z,99870.13
2023-05-23T19:49:46.837Z,99883.03
2023-05-23T19:52:14.294Z,99900.47
2023-05-23T19:54:46.700Z,99819.53
2023-05-23T19:57:16.400Z,99733.28
2023-05-23T19:59:43.184Z,99831.81
2023-05-23T20:02:10.224Z,99818.72
2023-05-23T20:04:41.810Z,99864.19
2023-05-23T20:07:14.078Z,99829.25
2023-05-23T20:09:41.545Z,99921.75
2023-05-23T20:12:10.812Z,99828.38
2023-05-23T20:14:37.702Z,99860.63
2023-05-23T20:17:08.376Z,99756.94
2023-05-23T20:19:35.333Z,99806.53
2023-05-23T20:22:02.497Z,99722.00
2023-05-23T20:24:33.841Z,99766.50
2023-05-23T20:27:01.157Z,99808.19
2023-05-23T20:29:27.946Z,99930.53
2023-05-23T20:31:57.146Z,99797.00
2023-05-23T20:34:23.950Z,99924.28
2023-05-23T20:36:50.925Z,99814.56
2023-05-23T20:39:20.075Z,99757.09
2023-05-23T20:41:53.826Z,99739.72
2023-05-23T20:44:20.791Z,99721.44
2023-05-23T20:46:50.081Z,99860.03
2023-05-23T20:49:19.283Z,99689.22
2023-05-23T20:51:46.249Z,99887.03
2023-05-23T20:54:16.044Z,99703.97
2023-05-23T20:56:42.947Z,99904.41
2023-05-23T20:59:12.384Z,99927.28
2023-05-23T21:01:40.274Z,99901.22
2023-05-23T21:04:09.662Z,99802.84
2023-05-23T21:06:37.075Z,99790.59
2023-05-23T21:09:06.449Z,99928.44
2023-05-23T21:11:33.154Z,99924.88
2023-05-23T21:14:02.903Z,99934.53
2023-05-23T21:16:31.884Z,99897.97
2023-05-23T21:19:00.375Z,99841.19
2023-05-23T21:21:27.251Z,99805.38
2023-05-23T21:23:54.020Z,99861.22
2023-05-23T21:26:21.088Z,99773.09
2023-05-23T21:28:48.705Z,99774.00
2023-05-23T21:31:18.350Z,99970.41
2023-05-23T21:33:49.177Z,99904.16
2023-05-23T21:36:15.959Z,99795.13
2023-05-23T21:38:45.083Z,99979.38
2023-05-23T21:41:11.958Z,99892.06
2023-05-23T21:43:38.885Z,99889.50
2023-05-23T21:46:05.707Z,99900.84
2023-05-23T21:48:32.476Z,99957.63
2023-05-23T21:50:59.409Z,99854.53
2023-05-23T21:53:26.270Z,99851.00
2023-05-23T21:55:53.088Z,99991.56
2023-05-23T21:58:19.892Z,99867.63
2023-05-23T22:00:49.044Z,99792.50
2023-05-23T22:03:16.057Z,99916.41
2023-05-23T22:05:42.905Z,99686.03
2023-05-23T22:08:09.955Z,99826.56
2023-05-23T22:10:40.534Z,99853.59
2023-05-23T22:13:10.051Z,99902.53
2023-05-23T22:15:39.129Z,100014.25
2023-05-23T22:18:08.186Z,100016.91
2023-05-23T22:20:38.857Z,100009.88
2023-05-23T22:23:09.809Z,99979.41
2023-05-23T22:25:38.341Z,99877.22
2023-05-23T22:28:05.120Z,99850.19
2023-05-23T22:30:34.300Z,99763.75
2023-05-23T22:33:12.895Z,99615.44
2023-05-23T22:35:40.970Z,99865.88
2023-05-23T22:38:09.976Z,100003.00
2023-05-23T22:40:39.974Z,99996.88
2023-05-23T22:43:07.708Z,100037.16
2023-05-23T22:45:43.357Z,99781.22
2023-05-23T22:48:11.430Z,100027.53
2023-05-23T22:50:41.840Z,99893.88
2023-05-23T22:53:09.063Z,99853.69
2023-05-23T22:55:39.197Z,99906.13
2023-05-23T22:58:09.013Z,100002.22
2023-05-23T23:00:38.357Z,99844.97
2023-05-23T23:03:10.054Z,99808.31
2023-05-23T23:05:37.073Z,99819.66
2023-05-23T23:08:04.076Z,99813.53
2023-05-23T23:10:33.410Z,100001.31
2023-05-23T23:13:00.180Z,99858.94
2023-05-23T23:15:27.320Z,100009.25
2023-05-23T23:17:56.801Z,99813.56
2023-05-23T23:20:23.669Z,99757.63
2023-05-23T23:22:50.677Z,99846.72
2023-05-23T23:25:18.879Z,99954.22
2023-05-23T23:27:45.678Z,99866.81
2023-05-23T23:30:12.872Z,99997.00
2023-05-23T23:32:39.690Z,99796.09
2023-05-23T23:35:09.292Z,99686.09
2023-05-23T23:37:36.360Z,99775.13
2023-05-23T23:40:05.299Z,99791.72
2023-05-23T23:42:34.491Z,99811.78
2023-05-23T23:45:01.702Z,100003.03
2023-05-23T23:47:28.601Z,100005.66
2023-05-23T23:49:59.907Z,99963.72
2023-05-23T23:52:30.799Z,100004.78
2023-05-23T23:55:00.488Z,99948.03
2023-05-23T23:57:27.377Z,99855.47
2023-05-23T23:59:54.307Z,99962.91
